sensor_id;sensor_type;location;lat;lon;timestamp;temperature;humidity
25200;DHT22;33094;48.782;9.162;2023-05-17T00:02:01;9.80;96.60
25200;DHT22;33094;48.782;9.162;2023-05-17T00:04:26;9.80;96.40
25200;DHT22;33094;48.782;9.162;2023-05-17T00:06:52;9.80;96.40
25200;DHT22;33094;48.782;9.162;2023-05-17T00:09:17;9.80;96.40
25200;DHT22;33094;48.782;9.162;2023-05-17T00:11:43;9.70;96.60
25200;DHT22;33094;48.782;9.162;2023-05-17T00:14:09;9.60;96.70
25200;DHT22;33094;48.782;9.162;2023-05-17T00:16:36;9.60;96.80
25200;DHT22;33094;48.782;9.162;2023-05-17T00:19:01;9.50;97.10
25200;DHT22;33094;48.782;9.162;2023-05-17T00:21:27;9.50;96.90
25200;DHT22;33094;48.782;9.162;2023-05-17T00:23:52;9.50;97.20
25200;DHT22;33094;48.782;9.162;2023-05-17T00:26:18;9.40;97.20
25200;DHT22;33094;48.782;9.162;2023-05-17T00:28:44;9.50;97.20
25200;DHT22;33094;48.782;9.162;2023-05-17T00:31:10;9.50;97.00
25200;DHT22;33094;48.782;9.162;2023-05-17T00:33:35;9.50;97.00
25200;DHT22;33094;48.782;9.162;2023-05-17T00:36:01;9.50;97.10
25200;DHT22;33094;48.782;9.162;2023-05-17T00:38:27;9.50;97.10
25200;DHT22;33094;48.782;9.162;2023-05-17T00:40:52;9.50;97.10
25200;DHT22;33094;48.782;9.162;2023-05-17T00:43:18;9.40;97.10
25200;DHT22;33094;48.782;9.162;2023-05-17T00:45:44;9.40;97.10
25200;DHT22;33094;48.782;9.162;2023-05-17T00:48:12;9.30;97.30
25200;DHT22;33094;48.782;9.162;2023-05-17T00:50:38;9.30;97.30
25200;DHT22;33094;48.782;9.162;2023-05-17T00:53:04;9.40;97.30
25200;DHT22;33094;48.782;9.162;2023-05-17T00:55:29;9.50;97.10
25200;DHT22;33094;48.782;9.162;2023-05-17T00:57:55;9.50;97.20
25200;DHT22;33094;48.782;9.162;2023-05-17T01:00:21;9.60;97.20
25200;DHT22;33094;48.782;9.162;2023-05-17T01:02:46;9.60;97.30
25200;DHT22;33094;48.782;9.162;2023-05-17T01:05:13;9.60;97.20
25200;DHT22;33094;48.782;9.162;2023-05-17T01:07:39;9.70;97.40
25200;DHT22;33094;48.782;9.162;2023-05-17T01:10:05;9.70;97.50
25200;DHT22;33094;48.782;9.162;2023-05-17T01:15:15;9.50;97.40
25200;DHT22;33094;48.782;9.162;2023-05-17T01:17:59;9.50;97.60
25200;DHT22;33094;48.782;9.162;2023-05-17T01:20:39;9.50;97.50
25200;DHT22;33094;48.782;9.162;2023-05-17T01:26:09;9.30;97.40
25200;DHT22;33094;48.782;9.162;2023-05-17T01:28:39;9.20;97.60
25200;DHT22;33094;48.782;9.162;2023-05-17T01:31:07;9.10;98.00
25200;DHT22;33094;48.782;9.162;2023-05-17T01:33:33;9.10;98.10
25200;DHT22;33094;48.782;9.162;2023-05-17T01:35:59;9.10;98.10
25200;DHT22;33094;48.782;9.162;2023-05-17T01:38:24;9.20;98.00
25200;DHT22;33094;48.782;9.162;2023-05-17T01:46:36;9.10;97.80
25200;DHT22;33094;48.782;9.162;2023-05-17T01:49:17;9.20;97.90
25200;DHT22;33094;48.782;9.162;2023-05-17T01:51:57;9.20;97.70
25200;DHT22;33094;48.782;9.162;2023-05-17T01:54:31;9.20;97.60
25200;DHT22;33094;48.782;9.162;2023-05-17T01:57:03;9.30;97.70
25200;DHT22;33094;48.782;9.162;2023-05-17T01:59:30;9.20;97.60
25200;DHT22;33094;48.782;9.162;2023-05-17T02:01:59;9.20;97.70
25200;DHT22;33094;48.782;9.162;2023-05-17T02:04:31;9.30;97.60
25200;DHT22;33094;48.782;9.162;2023-05-17T02:06:57;9.20;97.80
25200;DHT22;33094;48.782;9.162;2023-05-17T02:09:23;9.20;97.90
25200;DHT22;33094;48.782;9.162;2023-05-17T02:11:48;9.10;97.90
25200;DHT22;33094;48.782;9.162;2023-05-17T02:14:14;9.20;98.20
25200;DHT22;33094;48.782;9.162;2023-05-17T02:16:40;9.30;97.90
25200;DHT22;33094;48.782;9.162;2023-05-17T02:19:06;9.20;97.90
25200;DHT22;33094;48.782;9.162;2023-05-17T02:21:36;9.30;97.90
25200;DHT22;33094;48.782;9.162;2023-05-17T02:24:02;9.30;97.80
25200;DHT22;33094;48.782;9.162;2023-05-17T02:26:28;9.30;98.00
25200;DHT22;33094;48.782;9.162;2023-05-17T02:28:53;9.20;97.80
25200;DHT22;33094;48.782;9.162;2023-05-17T02:31:19;9.10;97.90
25200;DHT22;33094;48.782;9.162;2023-05-17T02:33:44;9.10;98.00
25200;DHT22;33094;48.782;9.162;2023-05-17T02:36:10;9.00;98.10
25200;DHT22;33094;48.782;9.162;2023-05-17T02:38:36;9.00;98.10
25200;DHT22;33094;48.782;9.162;2023-05-17T02:41:01;9.00;98.10
25200;DHT22;33094;48.782;9.162;2023-05-17T02:43:28;9.10;98.20
25200;DHT22;33094;48.782;9.162;2023-05-17T03:37:50;8.30;99.50
25200;DHT22;33094;48.782;9.162;2023-05-17T04:08:52;8.10;99.90
25200;DHT22;33094;48.782;9.162;2023-05-17T05:38:17;9.10;99.10
25200;DHT22;33094;48.782;9.162;2023-05-17T06:45:59;10.30;98.00
25200;DHT22;33094;48.782;9.162;2023-05-17T06:51:02;10.30;98.50
25200;DHT22;33094;48.782;9.162;2023-05-17T06:53:28;10.40;98.10
25200;DHT22;33094;48.782;9.162;2023-05-17T06:55:56;10.40;98.10
25200;DHT22;33094;48.782;9.162;2023-05-17T06:58:23;10.40;98.20
25200;DHT22;33094;48.782;9.162;2023-05-17T07:00:48;10.60;98.30
25200;DHT22;33094;48.782;9.162;2023-05-17T07:03:14;10.60;98.20
25200;DHT22;33094;48.782;9.162;2023-05-17T07:05:42;10.50;97.90
25200;DHT22;33094;48.782;9.162;2023-05-17T07:08:11;10.60;98.30
25200;DHT22;33094;48.782;9.162;2023-05-17T07:10:39;10.60;98.20
25200;DHT22;33094;48.782;9.162;2023-05-17T07:13:06;10.80;98.00
25200;DHT22;33094;48.782;9.162;2023-05-17T07:15:34;10.90;98.10
25200;DHT22;33094;48.782;9.162;2023-05-17T07:18:00;11.00;97.90
25200;DHT22;33094;48.782;9.162;2023-05-17T07:20:26;11.20;97.90
25200;DHT22;33094;48.782;9.162;2023-05-17T07:22:52;11.40;97.70
25200;DHT22;33094;48.782;9.162;2023-05-17T07:25:18;11.50;97.30
25200;DHT22;33094;48.782;9.162;2023-05-17T07:27:45;11.60;97.20
25200;DHT22;33094;48.782;9.162;2023-05-17T07:30:14;11.80;97.00
25200;DHT22;33094;48.782;9.162;2023-05-17T07:32:40;12.00;97.00
25200;DHT22;33094;48.782;9.162;2023-05-17T07:35:07;12.10;96.70
25200;DHT22;33094;48.782;9.162;2023-05-17T07:37:32;12.10;96.90
25200;DHT22;33094;48.782;9.162;2023-05-17T07:39:58;12.30;96.50
25200;DHT22;33094;48.782;9.162;2023-05-17T07:42:27;12.60;96.30
25200;DHT22;33094;48.782;9.162;2023-05-17T07:44:53;13.00;96.10
25200;DHT22;33094;48.782;9.162;2023-05-17T07:47:19;12.80;95.80
25200;DHT22;33094;48.782;9.162;2023-05-17T07:49:45;12.60;96.00
25200;DHT22;33094;48.782;9.162;2023-05-17T07:52:11;12.70;96.00
25200;DHT22;33094;48.782;9.162;2023-05-17T07:54:37;12.40;96.10
25200;DHT22;33094;48.782;9.162;2023-05-17T07:57:03;12.70;96.30
25200;DHT22;33094;48.782;9.162;2023-05-17T07:59:29;13.00;95.80
25200;DHT22;33094;48.782;9.162;2023-05-17T08:01:55;13.10;95.90
25200;DHT22;33094;48.782;9.162;2023-05-17T08:06:49;14.00;95.10
25200;DHT22;33094;48.782;9.162;2023-05-17T08:09:16;14.30;94.50
25200;DHT22;33094;48.782;9.162;2023-05-17T08:11:44;14.60;94.40
25200;DHT22;33094;48.782;9.162;2023-05-17T08:14:14;15.20;93.80
25200;DHT22;33094;48.782;9.162;2023-05-17T08:16:50;15.70;93.20
25200;DHT22;33094;48.782;9.162;2023-05-17T08:19:17;16.40;92.40
25200;DHT22;33094;48.782;9.162;2023-05-17T08:21:49;15.90;92.20
25200;DHT22;33094;48.782;9.162;2023-05-17T08:24:15;15.20;93.10
25200;DHT22;33094;48.782;9.162;2023-05-17T08:26:42;15.50;93.20
25200;DHT22;33094;48.782;9.162;2023-05-17T08:29:08;16.20;92.40
25200;DHT22;33094;48.782;9.162;2023-05-17T08:31:35;16.80;91.40
25200;DHT22;33094;48.782;9.162;2023-05-17T08:34:04;18.30;90.60
25200;DHT22;33094;48.782;9.162;2023-05-17T08:36:34;17.80;90.50
25200;DHT22;33094;48.782;9.162;2023-05-17T08:39:00;17.90;90.60
25200;DHT22;33094;48.782;9.162;2023-05-17T08:41:27;17.60;90.70
25200;DHT22;33094;48.782;9.162;2023-05-17T08:43:57;16.70;91.60
25200;DHT22;33094;48.782;9.162;2023-05-17T08:46:24;17.40;91.00
25200;DHT22;33094;48.782;9.162;2023-05-17T08:48:52;17.90;90.70
25200;DHT22;33094;48.782;9.162;2023-05-17T08:51:21;18.40;90.30
25200;DHT22;33094;48.782;9.162;2023-05-17T08:53:47;19.00;88.50
25200;DHT22;33094;48.782;9.162;2023-05-17T08:56:15;19.80;87.80
25200;DHT22;33094;48.782;9.162;2023-05-17T08:58:43;20.30;86.40
25200;DHT22;33094;48.782;9.162;2023-05-17T09:01:11;20.80;85.50
25200;DHT22;33094;48.782;9.162;2023-05-17T09:03:38;20.70;84.70
25200;DHT22;33094;48.782;9.162;2023-05-17T09:06:06;19.60;86.40
25200;DHT22;33094;48.782;9.162;2023-05-17T09:08:31;18.80;88.40
25200;DHT22;33094;48.782;9.162;2023-05-17T09:10:58;18.00;89.80
25200;DHT22;33094;48.782;9.162;2023-05-17T09:13:24;17.00;90.50
25200;DHT22;33094;48.782;9.162;2023-05-17T09:15:50;17.40;90.60
25200;DHT22;33094;48.782;9.162;2023-05-17T09:18:16;17.40;90.60
25200;DHT22;33094;48.782;9.162;2023-05-17T09:20:49;16.70;90.90
25200;DHT22;33094;48.782;9.162;2023-05-17T09:23:19;17.20;91.00
25200;DHT22;33094;48.782;9.162;2023-05-17T09:25:49;17.80;90.30
25200;DHT22;33094;48.782;9.162;2023-05-17T09:28:17;18.80;88.50
25200;DHT22;33094;48.782;9.162;2023-05-17T09:30:47;18.70;87.90
25200;DHT22;33094;48.782;9.162;2023-05-17T09:33:13;18.40;88.30
25200;DHT22;33094;48.782;9.162;2023-05-17T09:35:39;18.80;88.00
25200;DHT22;33094;48.782;9.162;2023-05-17T09:38:11;19.10;86.80
25200;DHT22;33094;48.782;9.162;2023-05-17T09:40:39;19.40;85.40
25200;DHT22;33094;48.782;9.162;2023-05-17T09:43:05;20.10;84.70
25200;DHT22;33094;48.782;9.162;2023-05-17T09:45:31;20.50;83.10
25200;DHT22;33094;48.782;9.162;2023-05-17T09:48:13;19.50;84.10
25200;DHT22;33094;48.782;9.162;2023-05-17T09:50:46;18.30;86.20
25200;DHT22;33094;48.782;9.162;2023-05-17T09:53:29;17.30;88.40
25200;DHT22;33094;48.782;9.162;2023-05-17T09:55:57;17.50;88.20
25200;DHT22;33094;48.782;9.162;2023-05-17T09:58:24;17.70;87.70
25200;DHT22;33094;48.782;9.162;2023-05-17T10:00:52;18.50;85.50
25200;DHT22;33094;48.782;9.162;2023-05-17T10:03:20;18.70;84.00
25200;DHT22;33094;48.782;9.162;2023-05-17T10:05:50;17.90;86.10
25200;DHT22;33094;48.782;9.162;2023-05-17T10:08:18;17.40;86.50
25200;DHT22;33094;48.782;9.162;2023-05-17T10:10:47;17.80;85.60
25200;DHT22;33094;48.782;9.162;2023-05-17T10:13:15;18.70;82.80
25200;DHT22;33094;48.782;9.162;2023-05-17T10:15:43;19.50;81.20
25200;DHT22;33094;48.782;9.162;2023-05-17T10:18:10;19.40;81.10
25200;DHT22;33094;48.782;9.162;2023-05-17T10:20:36;18.60;82.10
25200;DHT22;33094;48.782;9.162;2023-05-17T10:23:03;18.00;83.30
25200;DHT22;33094;48.782;9.162;2023-05-17T10:25:31;17.10;85.00
25200;DHT22;33094;48.782;9.162;2023-05-17T10:27:57;16.70;87.10
25200;DHT22;33094;48.782;9.162;2023-05-17T10:30:25;16.70;87.90
25200;DHT22;33094;48.782;9.162;2023-05-17T10:32:53;16.40;88.30
25200;DHT22;33094;48.782;9.162;2023-05-17T10:35:19;16.20;88.70
25200;DHT22;33094;48.782;9.162;2023-05-17T10:37:45;16.30;89.30
25200;DHT22;33094;48.782;9.162;2023-05-17T10:43:24;16.90;87.00
25200;DHT22;33094;48.782;9.162;2023-05-17T10:45:50;17.50;86.50
25200;DHT22;33094;48.782;9.162;2023-05-17T10:48:17;18.50;84.30
25200;DHT22;33094;48.782;9.162;2023-05-17T10:50:44;19.20;83.20
25200;DHT22;33094;48.782;9.162;2023-05-17T10:53:10;18.70;83.20
25200;DHT22;33094;48.782;9.162;2023-05-17T10:55:40;18.50;83.80
25200;DHT22;33094;48.782;9.162;2023-05-17T11:00:40;17.90;86.40
25200;DHT22;33094;48.782;9.162;2023-05-17T11:03:16;17.90;86.70
25200;DHT22;33094;48.782;9.162;2023-05-17T11:05:43;17.60;87.20
25200;DHT22;33094;48.782;9.162;2023-05-17T11:08:16;17.30;87.20
25200;DHT22;33094;48.782;9.162;2023-05-17T11:13:33;16.40;88.30
25200;DHT22;33094;48.782;9.162;2023-05-17T11:16:06;16.60;88.70
25200;DHT22;33094;48.782;9.162;2023-05-17T11:18:52;16.40;89.10
25200;DHT22;33094;48.782;9.162;2023-05-17T11:21:20;16.50;88.40
25200;DHT22;33094;48.782;9.162;2023-05-17T11:23:46;16.00;89.10
25200;DHT22;33094;48.782;9.162;2023-05-17T11:26:48;15.80;89.50
25200;DHT22;33094;48.782;9.162;2023-05-17T11:29:08;15.60;90.30
25200;DHT22;33094;48.782;9.162;2023-05-17T11:31:43;15.50;90.70
25200;DHT22;33094;48.782;9.162;2023-05-17T11:34:10;15.40;91.00
25200;DHT22;33094;48.782;9.162;2023-05-17T11:36:51;15.10;91.50
25200;DHT22;33094;48.782;9.162;2023-05-17T11:39:19;15.10;91.50
25200;DHT22;33094;48.782;9.162;2023-05-17T11:41:54;15.10;91.60
25200;DHT22;33094;48.782;9.162;2023-05-17T11:44:31;14.90;91.80
25200;DHT22;33094;48.782;9.162;2023-05-17T11:47:06;14.80;91.80
25200;DHT22;33094;48.782;9.162;2023-05-17T11:49:39;14.70;92.00
25200;DHT22;33094;48.782;9.162;2023-05-17T11:52:05;14.80;91.80
25200;DHT22;33094;48.782;9.162;2023-05-17T11:54:37;14.90;91.90
25200;DHT22;33094;48.782;9.162;2023-05-17T11:57:05;14.80;91.70
25200;DHT22;33094;48.782;9.162;2023-05-17T11:59:36;14.60;91.80
25200;DHT22;33094;48.782;9.162;2023-05-17T12:02:05;14.60;91.60
25200;DHT22;33094;48.782;9.162;2023-05-17T12:04:37;14.70;91.60
25200;DHT22;33094;48.782;9.162;2023-05-17T12:07:20;14.60;91.50
25200;DHT22;33094;48.782;9.162;2023-05-17T12:09:46;14.70;91.20
25200;DHT22;33094;48.782;9.162;2023-05-17T12:12:12;14.70;91.50
25200;DHT22;33094;48.782;9.162;2023-05-17T12:14:42;15.00;90.90
25200;DHT22;33094;48.782;9.162;2023-05-17T12:17:22;15.20;90.70
25200;DHT22;33094;48.782;9.162;2023-05-17T12:19:53;15.50;90.50
25200;DHT22;33094;48.782;9.162;2023-05-17T12:22:19;15.60;90.10
25200;DHT22;33094;48.782;9.162;2023-05-17T12:24:47;15.60;90.40
25200;DHT22;33094;48.782;9.162;2023-05-17T12:27:13;15.90;90.30
25200;DHT22;33094;48.782;9.162;2023-05-17T12:29:44;16.00;89.20
25200;DHT22;33094;48.782;9.162;2023-05-17T12:32:15;16.20;89.40
25200;DHT22;33094;48.782;9.162;2023-05-17T12:34:41;16.20;88.50
25200;DHT22;33094;48.782;9.162;2023-05-17T12:37:06;16.60;88.20
25200;DHT22;33094;48.782;9.162;2023-05-17T12:39:34;16.90;88.50
25200;DHT22;33094;48.782;9.162;2023-05-17T12:42:00;17.10;88.60
25200;DHT22;33094;48.782;9.162;2023-05-17T12:44:26;17.00;88.70
25200;DHT22;33094;48.782;9.162;2023-05-17T12:46:54;17.00;88.70
25200;DHT22;33094;48.782;9.162;2023-05-17T12:49:22;16.80;89.60
25200;DHT22;33094;48.782;9.162;2023-05-17T12:51:48;16.90;89.80
25200;DHT22;33094;48.782;9.162;2023-05-17T12:54:34;17.10;89.00
25200;DHT22;33094;48.782;9.162;2023-05-17T12:57:15;17.30;89.60
25200;DHT22;33094;48.782;9.162;2023-05-17T12:59:48;17.00;89.50
25200;DHT22;33094;48.782;9.162;2023-05-17T13:02:20;16.60;89.80
25200;DHT22;33094;48.782;9.162;2023-05-17T13:04:46;15.80;90.50
25200;DHT22;33094;48.782;9.162;2023-05-17T13:07:19;15.30;91.10
25200;DHT22;33094;48.782;9.162;2023-05-17T13:09:46;15.50;91.00
25200;DHT22;33094;48.782;9.162;2023-05-17T13:12:21;15.80;90.90
25200;DHT22;33094;48.782;9.162;2023-05-17T13:14:49;15.70;90.90
25200;DHT22;33094;48.782;9.162;2023-05-17T13:17:24;15.90;90.90
25200;DHT22;33094;48.782;9.162;2023-05-17T13:19:51;16.30;90.60
25200;DHT22;33094;48.782;9.162;2023-05-17T13:22:17;16.80;90.40
25200;DHT22;33094;48.782;9.162;2023-05-17T13:24:45;16.90;90.30
25200;DHT22;33094;48.782;9.162;2023-05-17T13:27:20;16.80;90.10
25200;DHT22;33094;48.782;9.162;2023-05-17T13:30:17;16.80;90.00
25200;DHT22;33094;48.782;9.162;2023-05-17T13:32:43;16.70;89.90
25200;DHT22;33094;48.782;9.162;2023-05-17T13:35:09;16.50;90.00
25200;DHT22;33094;48.782;9.162;2023-05-17T13:37:35;16.70;89.90
25200;DHT22;33094;48.782;9.162;2023-05-17T13:40:02;16.50;90.20
25200;DHT22;33094;48.782;9.162;2023-05-17T13:42:31;16.60;90.10
25200;DHT22;33094;48.782;9.162;2023-05-17T13:45:00;16.60;89.20
25200;DHT22;33094;48.782;9.162;2023-05-17T13:47:36;16.50;89.90
25200;DHT22;33094;48.782;9.162;2023-05-17T13:50:01;16.40;90.00
25200;DHT22;33094;48.782;9.162;2023-05-17T13:52:28;16.20;90.20
25200;DHT22;33094;48.782;9.162;2023-05-17T13:54:55;16.20;89.80
25200;DHT22;33094;48.782;9.162;2023-05-17T13:57:26;16.20;89.90
25200;DHT22;33094;48.782;9.162;2023-05-17T13:59:52;16.20;90.00
25200;DHT22;33094;48.782;9.162;2023-05-17T14:02:18;16.10;89.70
25200;DHT22;33094;48.782;9.162;2023-05-17T14:04:46;16.00;89.30
25200;DHT22;33094;48.782;9.162;2023-05-17T14:07:12;15.90;89.60
25200;DHT22;33094;48.782;9.162;2023-05-17T14:09:38;16.00;88.70
25200;DHT22;33094;48.782;9.162;2023-05-17T14:12:04;16.20;89.00
25200;DHT22;33094;48.782;9.162;2023-05-17T14:14:30;16.70;88.70
25200;DHT22;33094;48.782;9.162;2023-05-17T14:16:56;16.90;88.40
25200;DHT22;33094;48.782;9.162;2023-05-17T14:19:22;16.80;88.90
25200;DHT22;33094;48.782;9.162;2023-05-17T14:21:48;16.60;89.20
25200;DHT22;33094;48.782;9.162;2023-05-17T14:24:14;16.60;89.10
25200;DHT22;33094;48.782;9.162;2023-05-17T14:26:43;16.60;88.10
25200;DHT22;33094;48.782;9.162;2023-05-17T14:29:18;16.50;88.80
25200;DHT22;33094;48.782;9.162;2023-05-17T14:34:59;16.30;88.50
25200;DHT22;33094;48.782;9.162;2023-05-17T14:37:25;16.20;88.10
25200;DHT22;33094;48.782;9.162;2023-05-17T14:39:53;16.00;88.20
25200;DHT22;33094;48.782;9.162;2023-05-17T14:42:40;15.80;88.40
25200;DHT22;33094;48.782;9.162;2023-05-17T14:45:36;16.00;88.70
25200;DHT22;33094;48.782;9.162;2023-05-17T18:36:45;13.60;91.60
25200;DHT22;33094;48.782;9.162;2023-05-17T18:39:12;13.50;91.80
25200;DHT22;33094;48.782;9.162;2023-05-17T18:41:38;13.60;91.70
25200;DHT22;33094;48.782;9.162;2023-05-17T18:44:07;13.50;92.00
25200;DHT22;33094;48.782;9.162;2023-05-17T18:49:13;13.40;92.00
25200;DHT22;33094;48.782;9.162;2023-05-17T18:51:41;13.40;92.20
25200;DHT22;33094;48.782;9.162;2023-05-17T18:54:11;13.30;92.30
25200;DHT22;33094;48.782;9.162;2023-05-17T18:56:38;13.20;92.50
25200;DHT22;33094;48.782;9.162;2023-05-17T18:59:07;13.20;92.40
25200;DHT22;33094;48.782;9.162;2023-05-17T19:01:36;13.20;92.60
25200;DHT22;33094;48.782;9.162;2023-05-17T19:04:03;13.00;92.80
25200;DHT22;33094;48.782;9.162;2023-05-17T19:06:30;12.90;92.50
25200;DHT22;33094;48.782;9.162;2023-05-17T19:45:11;12.00;94.80
25200;DHT22;33094;48.782;9.162;2023-05-17T19:47:41;11.90;94.80
25200;DHT22;33094;48.782;9.162;2023-05-17T19:50:09;11.80;94.50
25200;DHT22;33094;48.782;9.162;2023-05-17T19:52:42;11.80;94.60
25200;DHT22;33094;48.782;9.162;2023-05-17T19:57:49;11.80;94.50
25200;DHT22;33094;48.782;9.162;2023-05-17T20:00:16;11.80;94.80
25200;DHT22;33094;48.782;9.162;2023-05-17T20:02:43;11.70;94.80
25200;DHT22;33094;48.782;9.162;2023-05-17T20:05:09;11.70;94.90
25200;DHT22;33094;48.782;9.162;2023-05-17T20:07:35;11.60;95.00
25200;DHT22;33094;48.782;9.162;2023-05-17T20:10:03;11.60;95.10
25200;DHT22;33094;48.782;9.162;2023-05-17T20:12:29;11.50;95.20
25200;DHT22;33094;48.782;9.162;2023-05-17T20:14:58;11.50;95.30
25200;DHT22;33094;48.782;9.162;2023-05-17T20:17:24;11.40;95.50
25200;DHT22;33094;48.782;9.162;2023-05-17T20:19:51;11.40;95.70
25200;DHT22;33094;48.782;9.162;2023-05-17T20:22:18;11.30;95.90
25200;DHT22;33094;48.782;9.162;2023-05-17T20:24:45;11.30;96.20
25200;DHT22;33094;48.782;9.162;2023-05-17T20:27:11;11.20;96.30
25200;DHT22;33094;48.782;9.162;2023-05-17T20:29:40;11.20;96.40
25200;DHT22;33094;48.782;9.162;2023-05-17T20:32:09;11.10;96.60
25200;DHT22;33094;48.782;9.162;2023-05-17T20:34:36;11.00;96.80
25200;DHT22;33094;48.782;9.162;2023-05-17T20:37:03;11.00;96.90
25200;DHT22;33094;48.782;9.162;2023-05-17T20:39:32;10.90;97.20
25200;DHT22;33094;48.782;9.162;2023-05-17T20:41:59;10.90;96.90
25200;DHT22;33094;48.782;9.162;2023-05-17T20:44:26;10.90;97.00
25200;DHT22;33094;48.782;9.162;2023-05-17T20:49:22;10.90;97.20
25200;DHT22;33094;48.782;9.162;2023-05-17T20:51:48;10.80;97.20
25200;DHT22;33094;48.782;9.162;2023-05-17T20:54:13;10.70;97.40
25200;DHT22;33094;48.782;9.162;2023-05-17T20:56:42;10.60;97.40
25200;DHT22;33094;48.782;9.162;2023-05-17T20:59:08;10.60;97.50
25200;DHT22;33094;48.782;9.162;2023-05-17T21:01:33;10.50;97.60
25200;DHT22;33094;48.782;9.162;2023-05-17T21:04:00;10.40;97.60
25200;DHT22;33094;48.782;9.162;2023-05-17T21:06:26;10.40;97.80
25200;DHT22;33094;48.782;9.162;2023-05-17T21:08:53;10.40;97.90
25200;DHT22;33094;48.782;9.162;2023-05-17T21:11:19;10.40;98.00
25200;DHT22;33094;48.782;9.162;2023-05-17T21:13:48;10.40;98.00
25200;DHT22;33094;48.782;9.162;2023-05-17T21:16:15;10.30;98.10
25200;DHT22;33094;48.782;9.162;2023-05-17T21:18:41;10.30;98.20
25200;DHT22;33094;48.782;9.162;2023-05-17T21:21:10;10.20;98.40
25200;DHT22;33094;48.782;9.162;2023-05-17T21:23:36;10.20;98.30
25200;DHT22;33094;48.782;9.162;2023-05-17T21:26:01;10.30;98.20
25200;DHT22;33094;48.782;9.162;2023-05-17T21:28:28;10.10;98.30
25200;DHT22;33094;48.782;9.162;2023-05-17T21:30:54;10.10;98.20
25200;DHT22;33094;48.782;9.162;2023-05-17T21:33:20;10.20;98.00
25200;DHT22;33094;48.782;9.162;2023-05-17T21:35:46;10.20;98.00
25200;DHT22;33094;48.782;9.162;2023-05-17T21:38:11;10.00;98.00
25200;DHT22;33094;48.782;9.162;2023-05-17T21:40:37;10.00;98.20
25200;DHT22;33094;48.782;9.162;2023-05-17T21:43:04;10.00;98.30
25200;DHT22;33094;48.782;9.162;2023-05-17T21:45:31;9.90;98.40
25200;DHT22;33094;48.782;9.162;2023-05-17T21:47:56;9.90;98.50
25200;DHT22;33094;48.782;9.162;2023-05-17T21:50:22;9.80;98.60
25200;DHT22;33094;48.782;9.162;2023-05-17T21:52:48;9.80;98.70
25200;DHT22;33094;48.782;9.162;2023-05-17T21:55:14;9.70;98.70
25200;DHT22;33094;48.782;9.162;2023-05-17T21:57:40;9.80;98.80
25200;DHT22;33094;48.782;9.162;2023-05-17T22:00:08;9.70;98.70
25200;DHT22;33094;48.782;9.162;2023-05-17T22:02:37;9.60;98.80
25200;DHT22;33094;48.782;9.162;2023-05-17T22:05:06;9.50;98.90
25200;DHT22;33094;48.782;9.162;2023-05-17T22:07:32;9.50;99.10
25200;DHT22;33094;48.782;9.162;2023-05-17T22:09:58;9.50;99.40
25200;DHT22;33094;48.782;9.162;2023-05-17T22:12:24;9.40;99.40
25200;DHT22;33094;48.782;9.162;2023-05-17T22:14:51;9.50;99.50
25200;DHT22;33094;48.782;9.162;2023-05-17T22:17:19;9.50;99.40
25200;DHT22;33094;48.782;9.162;2023-05-17T22:19:51;9.40;99.40
25200;DHT22;33094;48.782;9.162;2023-05-17T22:22:17;9.40;99.30
25200;DHT22;33094;48.782;9.162;2023-05-17T22:24:44;9.30;99.30
25200;DHT22;33094;48.782;9.162;2023-05-17T22:27:09;9.30;99.50
25200;DHT22;33094;48.782;9.162;2023-05-17T22:29:35;9.30;99.40
25200;DHT22;33094;48.782;9.162;2023-05-17T22:32:04;9.30;99.20
25200;DHT22;33094;48.782;9.162;2023-05-17T22:34:30;9.30;99.10
25200;DHT22;33094;48.782;9.162;2023-05-17T22:36:57;9.30;99.30
25200;DHT22;33094;48.782;9.162;2023-05-17T22:39:22;9.20;99.30
25200;DHT22;33094;48.782;9.162;2023-05-17T22:41:48;9.20;99.30
25200;DHT22;33094;48.782;9.162;2023-05-17T22:44:14;9.20;99.50
25200;DHT22;33094;48.782;9.162;2023-05-17T22:46:40;9.20;99.60
25200;DHT22;33094;48.782;9.162;2023-05-17T22:49:06;9.20;99.60
25200;DHT22;33094;48.782;9.162;2023-05-17T22:51:33;9.20;99.50
25200;DHT22;33094;48.782;9.162;2023-05-17T22:54:00;9.20;99.70
25200;DHT22;33094;48.782;9.162;2023-05-17T22:56:25;9.20;99.90
25200;DHT22;33094;48.782;9.162;2023-05-17T22:58:51;9.10;99.90
25200;DHT22;33094;48.782;9.162;2023-05-17T23:01:17;9.20;99.90
25200;DHT22;33094;48.782;9.162;2023-05-17T23:03:42;9.20;99.90
25200;DHT22;33094;48.782;9.162;2023-05-17T23:06:08;9.20;99.90
25200;DHT22;33094;48.782;9.162;2023-05-17T23:08:34;9.20;99.90
25200;DHT22;33094;48.782;9.162;2023-05-17T23:10:59;9.10;99.90
25200;DHT22;33094;48.782;9.162;2023-05-17T23:13:26;9.10;99.90
25200;DHT22;33094;48.782;9.162;2023-05-17T23:15:52;9.10;99.90
25200;DHT22;33094;48.782;9.162;2023-05-17T23:18:18;9.10;99.90
25200;DHT22;33094;48.782;9.162;2023-05-17T23:20:44;9.10;99.90
25200;DHT22;33094;48.782;9.162;2023-05-17T23:23:11;9.00;99.90
25200;DHT22;33094;48.782;9.162;2023-05-17T23:25:37;9.00;99.90
25200;DHT22;33094;48.782;9.162;2023-05-17T23:28:03;9.00;99.90
25200;DHT22;33094;48.782;9.162;2023-05-17T23:30:30;8.90;99.90
25200;DHT22;33094;48.782;9.162;2023-05-17T23:32:55;8.90;99.90
25200;DHT22;33094;48.782;9.162;2023-05-17T23:35:24;8.90;99.90
25200;DHT22;33094;48.782;9.162;2023-05-17T23:37:50;8.90;99.90
25200;DHT22;33094;48.782;9.162;2023-05-17T23:40:16;8.80;99.90
25200;DHT22;33094;48.782;9.162;2023-05-17T23:42:42;8.70;99.90
25200;DHT22;33094;48.782;9.162;2023-05-17T23:45:08;8.70;99.90
25200;DHT22;33094;48.782;9.162;2023-05-17T23:47:34;8.70;99.90
25200;DHT22;33094;48.782;9.162;2023-05-17T23:50:00;8.90;99.90
25200;DHT22;33094;48.782;9.162;2023-05-17T23:52:27;9.00;99.90
25200;DHT22;33094;48.782;9.162;2023-05-17T23:54:56;9.00;99.90
25200;DHT22;33094;48.782;9.162;2023-05-17T23:57:23;9.00;99.90
25200;DHT22;33094;48.782;9.162;2023-05-17T23:59:49;9.10;99.90
